Time;durP1;ratioP1;P1;durP2;ratioP2;P2;SDS_P1;SDS_P2;PMS_P1;PMS_P2;Temp;Humidity;BMP_temperature;BMP_pressure;BME280_temperature;BME280_humidity;BME280_pressure;Samples;Min_cycle;Max_cycle;Signal;HPM_P1;HPM_P2
2023/08/08 00:02:20;;;;;;;7.00;2.80;;;;;;;12.94;100.00;97508.73;106877;1279;22565;-85
2023/08/08 00:04:50;;;;;;;5.30;2.60;;;;;;;12.93;100.00;97507.14;106811;1279;22524;-85
2023/08/08 00:07:18;;;;;;;7.80;3.20;;;;;;;12.93;100.00;97512.33;106860;1280;25356;-85
2023/08/08 00:09:46;;;;;;;4.90;2.90;;;;;;;12.93;100.00;97512.64;106892;1279;23273;-84
2023/08/08 00:12:14;;;;;;;6.70;3.10;;;;;;;12.94;100.00;97517.91;106932;1279;24350;-86
2023/08/08 00:14:42;;;;;;;4.90;2.90;;;;;;;12.94;100.00;97523.92;106880;1279;25282;-85
2023/08/08 00:17:10;;;;;;;6.30;2.70;;;;;;;12.93;100.00;97527.15;106873;1279;22658;-84
2023/08/08 00:19:38;;;;;;;4.30;2.80;;;;;;;12.90;100.00;97523.00;106825;1279;22657;-85
2023/08/08 00:22:06;;;;;;;6.10;3.20;;;;;;;12.87;100.00;97527.94;106756;1279;22839;-85
2023/08/08 00:24:34;;;;;;;6.60;2.70;;;;;;;12.85;100.00;97529.98;106785;1279;24365;-85
2023/08/08 00:27:02;;;;;;;7.70;3.40;;;;;;;12.85;100.00;97529.53;106731;1279;156293;-85
2023/08/08 00:29:31;;;;;;;10.10;3.50;;;;;;;12.85;100.00;97532.23;106772;1279;22627;-86
2023/08/08 00:31:59;;;;;;;5.70;2.90;;;;;;;12.85;100.00;97533.98;106859;1278;25538;-85
2023/08/08 00:34:28;;;;;;;4.10;2.70;;;;;;;12.86;100.00;97537.23;106875;1279;25281;-86
2023/08/08 00:36:56;;;;;;;7.50;3.40;;;;;;;12.84;100.00;97536.70;106891;1279;22547;-86
2023/08/08 00:39:24;;;;;;;7.90;3.20;;;;;;;12.83;100.00;97542.41;106915;1279;23940;-85
2023/08/08 00:41:52;;;;;;;9.40;3.10;;;;;;;12.84;100.00;97538.91;106873;1279;24267;-86
2023/08/08 00:44:20;;;;;;;7.20;3.20;;;;;;;12.83;100.00;97536.21;106752;1279;22683;-85
2023/08/08 00:46:48;;;;;;;7.70;3.50;;;;;;;12.82;100.00;97536.50;106899;1279;25257;-85
2023/08/08 00:49:16;;;;;;;8.10;2.80;;;;;;;12.81;100.00;97537.69;106781;1280;25281;-84
2023/08/08 00:51:46;;;;;;;6.90;3.00;;;;;;;12.80;100.00;97536.57;106882;1279;22585;-85
2023/08/08 00:54:14;;;;;;;6.00;3.20;;;;;;;12.78;100.00;97542.14;106900;1279;22523;-85
2023/08/08 00:56:42;;;;;;;7.60;3.30;;;;;;;12.78;100.00;97546.66;106833;1279;25389;-85
2023/08/08 00:59:13;;;;;;;5.90;2.80;;;;;;;12.75;100.00;97546.19;106809;1279;22524;-84
2023/08/08 01:01:42;;;;;;;6.00;2.90;;;;;;;12.74;100.00;97550.02;106722;1279;24501;-85
2023/08/08 01:04:11;;;;;;;6.30;2.80;;;;;;;12.73;100.00;97548.96;106933;1279;23949;-90
2023/08/08 01:06:47;;;;;;;6.30;3.00;;;;;;;12.72;100.00;97552.65;107031;1279;22817;-86
2023/08/08 01:09:28;;;;;;;4.50;2.80;;;;;;;12.72;100.00;97549.48;106868;1280;22630;-87
2023/08/08 01:11:57;;;;;;;8.00;3.30;;;;;;;12.70;100.00;97549.50;106882;1279;24487;-82
2023/08/08 01:14:30;;;;;;;14.60;4.30;;;;;;;12.70;100.00;97550.94;106916;1280;23398;-84
2023/08/08 01:16:59;;;;;;;8.60;4.40;;;;;;;12.69;100.00;97550.40;106882;1280;24375;-85
2023/08/08 01:19:30;;;;;;;8.90;3.90;;;;;;;12.68;100.00;97553.67;106899;1279;24205;-85
2023/08/08 01:22:05;;;;;;;8.10;3.70;;;;;;;12.66;100.00;97559.69;106891;1280;25498;-84
2023/08/08 01:24:36;;;;;;;9.00;3.90;;;;;;;12.64;100.00;97554.06;106450;1259;22529;-82
2023/08/08 01:27:06;;;;;;;9.10;3.30;;;;;;;12.63;100.00;97556.09;106851;1280;22556;-82
2023/08/08 01:29:34;;;;;;;8.10;3.40;;;;;;;12.62;100.00;97560.73;106826;1279;25480;-83
2023/08/08 01:32:02;;;;;;;9.30;3.80;;;;;;;12.58;100.00;97559.84;106627;1280;23893;-88
2023/08/08 01:34:31;;;;;;;9.50;4.20;;;;;;;12.54;100.00;97559.26;106806;1279;22732;-87
2023/08/08 01:37:28;;;;;;;9.60;5.40;;;;;;;12.52;100.00;97553.31;106694;1280;22674;-87
2023/08/08 01:39:59;;;;;;;8.80;4.70;;;;;;;12.50;100.00;97559.16;106665;1280;22465;-88
2023/08/08 01:42:28;;;;;;;9.80;4.20;;;;;;;12.48;100.00;97558.86;106614;1279;24307;-87
2023/08/08 01:44:57;;;;;;;9.40;4.00;;;;;;;12.45;100.00;97564.64;106766;1280;24262;-86
2023/08/08 01:47:25;;;;;;;10.80;3.70;;;;;;;12.41;100.00;97558.79;106779;1271;22747;-86
2023/08/08 01:49:53;;;;;;;5.20;2.70;;;;;;;12.38;100.00;97560.19;106870;1280;24085;-85
2023/08/08 01:52:22;;;;;;;6.90;3.00;;;;;;;12.31;100.00;97559.88;106861;1280;25697;-85
2023/08/08 01:54:50;;;;;;;7.20;2.70;;;;;;;12.27;100.00;97561.61;106747;1280;22521;-84
2023/08/08 01:57:18;;;;;;;6.50;3.20;;;;;;;12.23;100.00;97558.60;106855;1279;22629;-86
2023/08/08 01:59:46;;;;;;;5.30;3.00;;;;;;;12.20;100.00;97557.92;106751;1280;25551;-86
2023/08/08 02:02:17;;;;;;;5.20;2.60;;;;;;;12.18;100.00;97558.11;106796;1280;22728;-86
2023/08/08 02:04:45;;;;;;;3.20;2.60;;;;;;;12.16;100.00;97559.84;106798;1278;22527;-86
2023/08/08 02:07:13;;;;;;;5.10;2.70;;;;;;;12.14;100.00;97561.33;106803;1280;24207;-86
2023/08/08 02:09:46;;;;;;;8.60;3.10;;;;;;;12.11;100.00;97563.14;106943;1280;22637;-87
2023/08/08 02:12:14;;;;;;;6.50;3.00;;;;;;;12.09;100.00;97562.02;106823;1280;25620;-88
2023/08/08 02:14:42;;;;;;;5.10;2.90;;;;;;;12.05;100.00;97561.00;106823;1280;22583;-86
2023/08/08 02:17:10;;;;;;;4.30;2.90;;;;;;;12.01;100.00;97566.08;106890;1280;26644;-86
2023/08/08 02:19:38;;;;;;;6.90;3.00;;;;;;;11.97;100.00;97573.70;106835;1280;25484;-87
2023/08/08 02:22:06;;;;;;;4.10;2.70;;;;;;;11.94;100.00;97577.63;106866;1280;22698;-85
2023/08/08 02:24:34;;;;;;;7.50;2.90;;;;;;;11.91;100.00;97579.56;106899;1279;22549;-86
2023/08/08 02:27:02;;;;;;;8.80;3.20;;;;;;;11.90;100.00;97580.23;106740;1280;22596;-86
2023/08/08 02:29:30;;;;;;;10.60;4.10;;;;;;;11.88;100.00;97579.34;106859;1280;22520;-86
2023/08/08 02:31:59;;;;;;;10.20;3.50;;;;;;;11.87;100.00;97580.98;106791;1280;22600;-87
2023/08/08 02:34:28;;;;;;;12.80;4.40;;;;;;;11.83;100.00;97584.07;106784;1279;22741;-84
2023/08/08 02:36:56;;;;;;;7.40;3.70;;;;;;;11.82;100.00;97585.16;106871;1279;22569;-84
2023/08/08 02:39:24;;;;;;;9.90;4.20;;;;;;;11.77;100.00;97589.46;106846;1279;24449;-86
2023/08/08 02:41:52;;;;;;;10.20;4.80;;;;;;;11.73;100.00;97594.83;106847;1280;23329;-83
2023/08/08 02:44:22;;;;;;;11.90;4.70;;;;;;;11.70;100.00;97589.97;106836;1280;24226;-83
2023/08/08 02:46:51;;;;;;;19.50;5.20;;;;;;;11.68;100.00;97592.65;106712;1280;22648;-83
2023/08/08 02:49:19;;;;;;;10.70;4.20;;;;;;;11.66;100.00;97594.55;106687;1280;22531;-83
2023/08/08 02:51:48;;;;;;;10.50;5.10;;;;;;;11.68;100.00;97597.13;106828;1279;22636;-83
2023/08/08 02:54:17;;;;;;;14.00;5.10;;;;;;;11.64;100.00;97605.41;106734;1280;24151;-84
2023/08/08 02:56:45;;;;;;;13.70;5.00;;;;;;;11.62;100.00;97607.08;106823;1280;22654;-84
2023/08/08 02:59:13;;;;;;;14.20;5.60;;;;;;;11.60;100.00;97615.05;106814;1278;22938;-84
2023/08/08 03:01:41;;;;;;;9.90;4.80;;;;;;;11.59;100.00;97616.75;106759;1279;24228;-83
2023/08/08 03:04:15;;;;;;;8.90;3.70;;;;;;;11.58;100.00;97615.01;106728;1280;22556;-83
2023/08/08 03:06:43;;;;;;;12.40;5.40;;;;;;;11.57;100.00;97620.30;106850;1280;24246;-83
2023/08/08 03:09:11;;;;;;;14.00;5.80;;;;;;;11.57;100.00;97617.45;106765;1279;25347;-84
2023/08/08 03:11:41;;;;;;;10.40;4.30;;;;;;;11.56;100.00;97620.55;106792;1280;22618;-85
2023/08/08 03:14:10;;;;;;;13.30;5.70;;;;;;;11.52;100.00;97623.46;106819;1280;23797;-85
2023/08/08 03:16:39;;;;;;;12.60;5.10;;;;;;;11.49;100.00;97624.98;106768;1279;24291;-85
2023/08/08 03:19:08;;;;;;;9.50;4.60;;;;;;;11.48;100.00;97628.17;106649;1280;22534;-85
2023/08/08 03:21:37;;;;;;;14.50;4.90;;;;;;;11.49;100.00;97631.21;106767;1280;23302;-84
2023/08/08 03:24:05;;;;;;;9.50;4.80;;;;;;;11.46;100.00;97629.75;106719;1280;22659;-84
2023/08/08 03:26:33;;;;;;;9.60;3.90;;;;;;;11.45;100.00;97633.81;106736;1279;23651;-84
2023/08/08 03:29:01;;;;;;;12.60;4.50;;;;;;;11.44;100.00;97634.53;106889;1280;23902;-84
2023/08/08 03:31:34;;;;;;;8.80;3.90;;;;;;;11.45;100.00;97641.65;106882;1280;25485;-84
2023/08/08 03:34:04;;;;;;;9.40;4.00;;;;;;;11.45;100.00;97643.46;106825;1280;24282;-84
2023/08/08 03:36:32;;;;;;;11.60;4.50;;;;;;;11.43;100.00;97641.03;106866;1280;22643;-84
2023/08/08 03:39:00;;;;;;;9.50;4.50;;;;;;;11.43;100.00;97642.93;106779;1280;23893;-86
2023/08/08 03:41:29;;;;;;;11.00;4.10;;;;;;;11.44;100.00;97644.91;107246;1280;23161;-85
2023/08/08 03:43:57;;;;;;;15.40;5.10;;;;;;;11.45;100.00;97641.42;107301;1280;22837;-85
2023/08/08 03:46:25;;;;;;;10.60;5.00;;;;;;;11.47;100.00;97638.66;106890;1278;24274;-86
2023/08/08 03:48:54;;;;;;;10.50;4.70;;;;;;;11.49;100.00;97650.71;107058;1280;22606;-84
2023/08/08 03:51:22;;;;;;;11.20;4.20;;;;;;;11.51;100.00;97652.98;108480;1280;22657;-83
2023/08/08 03:53:50;;;;;;;6.50;3.70;;;;;;;11.53;100.00;97654.91;108857;1280;22841;-83
2023/08/08 03:56:18;;;;;;;7.40;3.90;;;;;;;11.52;100.00;97659.35;109052;1279;22591;-83
2023/08/08 03:58:46;;;;;;;9.10;4.00;;;;;;;11.51;100.00;97661.10;109112;1279;22675;-84
2023/08/08 04:01:14;;;;;;;7.00;3.40;;;;;;;11.54;100.00;97665.30;108023;1280;26616;-83
2023/08/08 04:03:42;;;;;;;12.40;4.60;;;;;;;11.56;100.00;97669.50;106831;1280;23286;-83
2023/08/08 04:06:10;;;;;;;12.40;4.70;;;;;;;11.59;100.00;97674.91;106765;1279;24061;-83
2023/08/08 04:08:39;;;;;;;15.50;6.20;;;;;;;11.60;100.00;97674.03;106866;1280;22584;-83
2023/08/08 04:11:08;;;;;;;7.80;3.80;;;;;;;11.62;100.00;97684.90;106882;1280;22792;-83
2023/08/08 04:13:36;;;;;;;11.70;5.00;;;;;;;11.65;100.00;97688.17;106758;1279;25706;-83
2023/08/08 04:16:05;;;;;;;10.70;4.80;;;;;;;11.63;100.00;97681.02;106899;1280;22711;-83
2023/08/08 04:18:33;;;;;;;9.60;5.10;;;;;;;11.62;100.00;97685.34;106875;1280;22717;-83
2023/08/08 04:21:01;;;;;;;8.80;4.60;;;;;;;11.64;100.00;97687.65;106868;1280;22534;-82
2023/08/08 04:23:29;;;;;;;6.80;3.80;;;;;;;11.69;100.00;97690.17;106845;1280;24386;-83
2023/08/08 04:25:57;;;;;;;10.70;3.60;;;;;;;11.74;100.00;97690.58;106778;1279;23938;-83
2023/08/08 04:28:25;;;;;;;8.90;3.60;;;;;;;11.77;100.00;97693.56;106753;1280;23273;-82
2023/08/08 04:30:53;;;;;;;5.80;3.60;;;;;;;11.80;100.00;97692.66;106806;1280;25574;-83
2023/08/08 04:33:21;;;;;;;8.00;3.80;;;;;;;11.83;100.00;97700.20;106826;1279;23904;-84
2023/08/08 04:35:49;;;;;;;8.40;4.10;;;;;;;11.83;100.00;97698.11;106808;1280;22540;-82
2023/08/08 04:38:17;;;;;;;5.80;3.60;;;;;;;11.83;100.00;97702.43;106810;1279;23142;-83
2023/08/08 04:40:45;;;;;;;9.00;3.90;;;;;;;11.86;100.00;97703.13;106767;1279;22527;-83
2023/08/08 04:43:13;;;;;;;10.80;4.50;;;;;;;11.91;100.00;97709.31;107079;1280;22544;-83
2023/08/08 04:45:41;;;;;;;6.70;3.80;;;;;;;11.95;100.00;97713.52;106772;1280;22586;-83
2023/08/08 04:48:09;;;;;;;9.60;3.80;;;;;;;12.00;100.00;97717.00;106698;1279;22747;-83
2023/08/08 04:50:39;;;;;;;16.40;8.00;;;;;;;12.04;100.00;97726.16;106731;1279;22756;-84
2023/08/08 04:53:07;;;;;;;13.80;8.90;;;;;;;12.07;100.00;97727.39;106767;1279;22737;-83
2023/08/08 04:55:34;;;;;;;9.70;5.70;;;;;;;12.08;100.00;97730.83;106830;1279;25523;-83
2023/08/08 04:58:03;;;;;;;35.80;17.10;;;;;;;12.11;100.00;97737.77;106713;1280;26644;-82
2023/08/08 05:00:31;;;;;;;13.20;5.70;;;;;;;12.16;100.00;97739.62;106872;1279;25301;-84
2023/08/08 05:02:59;;;;;;;9.40;4.70;;;;;;;12.20;100.00;97750.24;106784;1279;22640;-85
2023/08/08 05:05:27;;;;;;;13.50;7.90;;;;;;;12.26;100.00;97750.81;106795;1280;24377;-83
2023/08/08 05:07:55;;;;;;;11.50;4.50;;;;;;;12.28;100.00;97754.96;107131;1280;22985;-82
2023/08/08 05:10:23;;;;;;;7.00;5.10;;;;;;;12.25;100.00;97753.41;106804;1279;22664;-84
2023/08/08 05:12:51;;;;;;;10.10;6.20;;;;;;;12.25;100.00;97758.88;106824;1280;22629;-80
2023/08/08 05:15:19;;;;;;;8.50;4.90;;;;;;;12.26;100.00;97756.53;106785;1279;24261;-82
2023/08/08 05:17:47;;;;;;;10.80;4.30;;;;;;;12.30;100.00;97762.81;106813;1279;22583;-81
2023/08/08 05:20:16;;;;;;;8.40;4.90;;;;;;;12.33;100.00;97771.21;106712;1279;22613;-80
2023/08/08 05:22:44;;;;;;;6.20;4.10;;;;;;;12.34;100.00;97775.05;106814;1279;22617;-80
2023/08/08 05:25:12;;;;;;;6.20;4.30;;;;;;;12.36;100.00;97775.61;106822;1279;22680;-86
2023/08/08 05:27:40;;;;;;;9.50;4.60;;;;;;;12.35;100.00;97774.45;106714;1280;22592;-86
2023/08/08 05:30:08;;;;;;;8.70;4.60;;;;;;;12.34;100.00;97774.11;106895;1280;22559;-84
2023/08/08 05:32:37;;;;;;;7.40;4.30;;;;;;;12.33;100.00;97777.64;106846;1268;22525;-83
2023/08/08 05:35:05;;;;;;;9.00;4.20;;;;;;;12.34;100.00;97776.80;106808;1280;22548;-85
2023/08/08 05:37:33;;;;;;;6.90;4.10;;;;;;;12.33;100.00;97775.59;106902;1279;22632;-85
2023/08/08 05:40:02;;;;;;;8.40;4.20;;;;;;;12.31;100.00;97777.44;106927;1279;25502;-84
2023/08/08 05:42:31;;;;;;;10.20;4.40;;;;;;;12.31;100.00;97778.23;106942;1279;22710;-85
2023/08/08 05:44:59;;;;;;;7.00;3.90;;;;;;;12.33;100.00;97772.98;106965;1280;22578;-83
2023/08/08 05:47:27;;;;;;;13.20;4.80;;;;;;;12.40;100.00;97771.70;106973;1280;22574;-82
2023/08/08 05:49:55;;;;;;;7.00;4.70;;;;;;;12.43;100.00;97765.17;106847;1279;23111;-82
2023/08/08 05:52:24;;;;;;;12.90;4.90;;;;;;;12.45;100.00;97765.23;106924;1279;23951;-82
2023/08/08 05:54:52;;;;;;;6.00;4.20;;;;;;;12.47;100.00;97765.27;106881;1279;24618;-82
2023/08/08 05:57:21;;;;;;;8.30;3.90;;;;;;;12.48;100.00;97766.70;106855;1280;24068;-82
2023/08/08 05:59:50;;;;;;;8.20;3.80;;;;;;;12.54;100.00;97769.20;106866;1280;25516;-82
2023/08/08 06:02:18;;;;;;;6.90;4.10;;;;;;;12.67;100.00;97765.58;106866;1280;22660;-82
2023/08/08 06:04:46;;;;;;;5.90;3.70;;;;;;;12.75;100.00;97767.34;106854;1279;22733;-82
2023/08/08 06:07:14;;;;;;;11.30;4.20;;;;;;;12.81;100.00;97765.80;106868;1279;22511;-82
2023/08/08 06:09:42;;;;;;;10.40;4.50;;;;;;;12.86;100.00;97766.49;106853;1280;25513;-82
2023/08/08 06:12:10;;;;;;;6.50;4.20;;;;;;;12.88;100.00;97763.77;106780;1279;22692;-82
2023/08/08 06:14:38;;;;;;;7.80;3.80;;;;;;;12.89;100.00;97765.66;106787;1280;22649;-83
2023/08/08 06:17:06;;;;;;;7.90;4.30;;;;;;;12.95;100.00;97763.22;106759;1279;22736;-82
2023/08/08 06:19:34;;;;;;;6.80;4.10;;;;;;;13.04;100.00;97763.16;106959;1280;22648;-82
2023/08/08 06:22:03;;;;;;;9.20;4.30;;;;;;;13.12;100.00;97765.84;106863;1280;24057;-82
2023/08/08 06:24:31;;;;;;;6.80;4.20;;;;;;;13.20;100.00;97763.64;106936;1280;23168;-82
2023/08/08 06:26:59;;;;;;;7.10;4.10;;;;;;;13.32;100.00;97765.48;106808;1280;24394;-82
2023/08/08 06:29:27;;;;;;;7.00;4.60;;;;;;;13.38;100.00;97770.42;106777;1279;22547;-82
2023/08/08 06:31:56;;;;;;;8.00;4.50;;;;;;;13.43;100.00;97771.77;106729;1280;22560;-81
2023/08/08 06:34:24;;;;;;;7.80;3.80;;;;;;;13.53;100.00;97770.91;106820;1279;22531;-82
2023/08/08 06:36:52;;;;;;;8.30;3.80;;;;;;;13.62;100.00;97774.45;106810;1279;24102;-81
2023/08/08 06:39:21;;;;;;;9.40;4.20;;;;;;;13.69;100.00;97776.77;106879;1279;22549;-82
2023/08/08 06:41:49;;;;;;;5.50;3.50;;;;;;;13.70;99.97;97779.49;106851;1279;25267;-82
2023/08/08 06:44:21;;;;;;;9.00;4.20;;;;;;;13.76;99.75;97778.21;106780;1279;25443;-82
2023/08/08 06:46:49;;;;;;;25.10;12.10;;;;;;;13.84;99.12;97783.91;106813;1273;22531;-81
2023/08/08 06:49:17;;;;;;;38.70;16.30;;;;;;;13.85;98.06;97780.08;106785;1279;22527;-82
2023/08/08 06:51:45;;;;;;;38.60;16.00;;;;;;;13.89;97.42;97780.92;106834;1279;22647;-82
2023/08/08 06:54:13;;;;;;;15.20;6.60;;;;;;;13.92;97.66;97775.73;106902;1279;23937;-82
2023/08/08 06:56:41;;;;;;;25.20;10.50;;;;;;;14.00;96.50;97773.02;106824;1279;22553;-82
2023/08/08 06:59:09;;;;;;;18.50;7.40;;;;;;;14.04;96.76;97770.34;106740;1280;22532;-80
2023/08/08 07:01:37;;;;;;;6.30;4.30;;;;;;;14.16;95.77;97771.05;106857;1279;22875;-81
2023/08/08 07:04:05;;;;;;;6.60;3.50;;;;;;;14.21;94.88;97775.60;106857;1280;26181;-83
2023/08/08 07:06:33;;;;;;;7.60;3.90;;;;;;;14.27;95.18;97775.00;106836;1280;24365;-82
2023/08/08 07:09:02;;;;;;;9.00;3.60;;;;;;;14.43;95.02;97767.48;106831;1280;23233;-82
2023/08/08 07:11:30;;;;;;;5.70;3.60;;;;;;;14.57;94.81;97769.00;106819;1279;22525;-82
2023/08/08 07:13:58;;;;;;;6.80;3.10;;;;;;;14.65;92.17;97768.16;106858;1280;24237;-82
2023/08/08 07:16:26;;;;;;;6.30;3.60;;;;;;;14.71;91.54;97772.75;106811;1280;24248;-82
2023/08/08 07:18:54;;;;;;;8.40;3.40;;;;;;;14.80;91.31;97770.36;106873;1279;22628;-82
2023/08/08 07:21:23;;;;;;;5.30;3.00;;;;;;;14.91;89.66;97770.99;106819;1279;23011;-81
2023/08/08 07:23:51;;;;;;;5.00;3.20;;;;;;;14.96;89.43;97771.37;106890;1278;22543;-80
2023/08/08 07:26:20;;;;;;;6.30;3.30;;;;;;;15.03;88.90;97771.99;106799;1279;22786;-82
2023/08/08 07:28:47;;;;;;;12.80;3.40;;;;;;;15.11;87.45;97775.06;106983;1279;22636;-80
2023/08/08 07:31:15;;;;;;;8.90;3.50;;;;;;;15.05;86.81;97775.49;106944;1280;22647;-82
2023/08/08 07:33:43;;;;;;;5.80;3.50;;;;;;;15.03;86.79;97769.38;106879;1279;22532;-81
2023/08/08 07:36:11;;;;;;;5.50;3.00;;;;;;;15.10;86.45;97768.68;107077;1280;22638;-83
2023/08/08 07:38:40;;;;;;;4.90;3.00;;;;;;;15.29;87.54;97763.86;108530;1279;25229;-81
2023/08/08 07:41:08;;;;;;;5.70;3.30;;;;;;;15.47;85.22;97764.75;108929;1279;22562;-81
2023/08/08 07:43:36;;;;;;;7.40;3.30;;;;;;;15.53;84.10;97772.40;107710;1279;22474;-83
2023/08/08 07:46:04;;;;;;;4.80;2.80;;;;;;;15.61;82.23;97770.36;108195;1280;22816;-81
2023/08/08 07:48:32;;;;;;;4.40;2.70;;;;;;;15.64;81.74;97768.36;108469;1279;22581;-81
2023/08/08 07:50:59;;;;;;;4.50;2.90;;;;;;;15.67;80.54;97774.02;108635;1280;24314;-81
2023/08/08 07:53:27;;;;;;;7.40;2.60;;;;;;;15.59;80.50;97768.90;106792;1280;23346;-81
2023/08/08 07:56:24;;;;;;;4.00;2.60;;;;;;;15.56;81.57;97767.30;106714;1280;22527;-81
2023/08/08 07:58:52;;;;;;;4.80;2.60;;;;;;;15.49;77.40;97769.15;106762;1279;23304;-80
2023/08/08 08:01:20;;;;;;;5.90;3.00;;;;;;;15.38;78.74;97772.21;106732;1280;22559;-80
2023/08/08 08:03:48;;;;;;;8.40;2.90;;;;;;;15.37;79.38;97767.11;106593;1279;25508;-80
2023/08/08 08:06:17;;;;;;;4.70;3.10;;;;;;;15.31;76.28;97770.78;106757;1279;25273;-82
2023/08/08 08:08:45;;;;;;;4.80;2.70;;;;;;;15.20;77.66;97769.28;106747;1279;22637;-80
2023/08/08 08:11:13;;;;;;;5.10;3.30;;;;;;;15.19;79.50;97770.42;106826;1279;22543;-80
2023/08/08 08:13:41;;;;;;;5.30;2.80;;;;;;;15.23;78.36;97775.21;106535;1280;24191;-80
2023/08/08 08:16:09;;;;;;;5.40;3.20;;;;;;;15.39;79.74;97765.08;106820;1279;22537;-81
2023/08/08 08:18:37;;;;;;;4.80;3.20;;;;;;;15.53;78.39;97760.38;106847;1280;22533;-80
2023/08/08 08:21:05;;;;;;;5.70;3.00;;;;;;;15.69;77.33;97772.44;106574;1279;22575;-81
2023/08/08 08:23:33;;;;;;;9.00;3.30;;;;;;;15.80;78.03;97758.02;106803;1280;25549;-80
2023/08/08 08:26:01;;;;;;;8.50;4.20;;;;;;;16.02;78.67;97756.34;106843;1279;24100;-80
2023/08/08 08:28:29;;;;;;;6.40;3.50;;;;;;;16.17;78.04;97751.92;106899;1280;22538;-80
2023/08/08 08:30:57;;;;;;;9.60;3.50;;;;;;;16.29;76.57;97747.35;106501;1279;22616;-80
2023/08/08 08:33:25;;;;;;;5.30;3.20;;;;;;;16.43;75.45;97754.47;106548;1280;22649;-80
2023/08/08 08:35:53;;;;;;;6.20;3.10;;;;;;;16.32;74.14;97751.80;106448;1279;22534;-80
2023/08/08 08:38:21;;;;;;;5.40;3.10;;;;;;;16.15;75.35;97751.83;106573;1279;22551;-80
2023/08/08 08:40:53;;;;;;;6.60;3.60;;;;;;;15.99;76.29;97747.78;106456;1279;22654;-80
2023/08/08 08:43:22;;;;;;;8.50;3.60;;;;;;;15.87;75.75;97750.16;106537;1279;22537;-80
2023/08/08 08:45:53;;;;;;;6.70;3.30;;;;;;;15.74;76.16;97760.91;106819;1279;25161;-80
2023/08/08 08:48:22;;;;;;;5.30;3.40;;;;;;;15.81;74.43;97765.60;106930;1279;22708;-80
2023/08/08 08:50:50;;;;;;;8.60;5.50;;;;;;;15.92;73.55;97753.74;106818;1279;22682;-80
2023/08/08 08:53:19;;;;;;;9.60;6.20;;;;;;;16.10;74.30;97754.34;106480;1279;24240;-80
2023/08/08 08:55:47;;;;;;;8.20;3.80;;;;;;;16.21;73.33;97754.85;106461;1279;22635;-80
2023/08/08 08:58:18;;;;;;;15.80;8.20;;;;;;;16.35;71.46;97748.40;106537;1279;22938;-80
2023/08/08 09:00:47;;;;;;;15.00;7.90;;;;;;;16.49;70.53;97742.52;106471;1280;24203;-79
2023/08/08 09:03:15;;;;;;;7.50;3.20;;;;;;;16.68;70.46;97742.75;106477;1279;25367;-80
2023/08/08 09:05:45;;;;;;;5.80;3.00;;;;;;;16.82;68.61;97748.02;106832;1267;24317;-80
2023/08/08 09:08:13;;;;;;;4.90;2.70;;;;;;;16.99;67.23;97741.11;106515;1279;25399;-80
2023/08/08 09:10:41;;;;;;;4.60;2.80;;;;;;;17.05;65.56;97740.20;106471;1279;22776;-81
2023/08/08 09:13:10;;;;;;;4.90;2.30;;;;;;;17.02;66.78;97738.98;106491;1279;26607;-80
2023/08/08 09:15:38;;;;;;;5.20;2.70;;;;;;;16.88;65.31;97737.69;106465;1279;23891;-80
2023/08/08 09:18:07;;;;;;;4.60;3.10;;;;;;;16.70;65.98;97741.02;106767;1279;22569;-80
2023/08/08 09:20:35;;;;;;;4.00;2.80;;;;;;;16.60;66.31;97742.04;106800;1279;22672;-79
2023/08/08 09:23:03;;;;;;;5.10;3.10;;;;;;;16.48;66.43;97741.98;106459;1279;24327;-80
2023/08/08 09:25:31;;;;;;;4.70;2.80;;;;;;;16.36;66.80;97739.83;106438;1279;25467;-79
2023/08/08 09:28:00;;;;;;;7.60;3.60;;;;;;;16.31;66.12;97745.48;106484;1279;22717;-80
2023/08/08 09:30:28;;;;;;;7.80;3.30;;;;;;;16.23;66.78;97736.91;106725;1279;22548;-80
2023/08/08 09:33:01;;;;;;;4.50;2.90;;;;;;;16.24;66.69;97731.66;106452;1279;22561;-79
2023/08/08 09:35:30;;;;;;;7.00;3.80;;;;;;;16.35;66.70;97738.45;106739;1279;25332;-80
2023/08/08 09:37:58;;;;;;;8.10;3.80;;;;;;;16.43;66.49;97733.33;106738;1279;24437;-80
2023/08/08 09:40:27;;;;;;;34.20;7.00;;;;;;;16.68;67.92;97731.16;106815;1279;25598;-81
2023/08/08 09:42:56;;;;;;;5.30;3.40;;;;;;;17.00;67.41;97728.41;106796;1279;24528;-80
2023/08/08 09:45:24;;;;;;;5.50;3.80;;;;;;;17.15;65.51;97722.85;106768;1279;25501;-80
2023/08/08 09:47:52;;;;;;;12.40;3.60;;;;;;;17.25;65.35;97732.22;106480;1279;22527;-81
2023/08/08 09:50:21;;;;;;;5.80;3.50;;;;;;;17.42;65.89;97727.63;106713;1279;22637;-81
2023/08/08 09:52:49;;;;;;;6.00;3.50;;;;;;;17.61;63.98;97740.44;106708;1279;24247;-80
2023/08/08 09:55:18;;;;;;;4.90;2.90;;;;;;;17.50;62.51;97733.90;106753;1279;22521;-80
2023/08/08 09:57:48;;;;;;;3.80;2.70;;;;;;;17.43;62.71;97737.39;106818;1279;24364;-80
2023/08/08 10:00:16;;;;;;;6.70;3.40;;;;;;;17.34;62.61;97741.40;106845;1279;25397;-80
2023/08/08 10:02:45;;;;;;;5.50;3.30;;;;;;;17.22;63.68;97733.14;106807;1279;25312;-80
2023/08/08 10:05:15;;;;;;;6.20;3.60;;;;;;;17.26;63.74;97732.50;106907;1279;25346;-79
2023/08/08 10:07:45;;;;;;;5.20;2.90;;;;;;;17.33;63.26;97740.37;106894;1279;24248;-80
2023/08/08 10:10:13;;;;;;;7.00;4.00;;;;;;;17.20;63.71;97730.13;106722;1279;25445;-80
2023/08/08 10:12:42;;;;;;;5.40;3.30;;;;;;;17.15;64.24;97728.05;106823;1280;25476;-79
2023/08/08 10:15:10;;;;;;;9.30;3.70;;;;;;;17.13;64.06;97727.14;106812;1279;22520;-80
2023/08/08 10:17:41;;;;;;;5.80;3.40;;;;;;;17.02;64.09;97726.59;106833;1279;24283;-80
2023/08/08 10:20:11;;;;;;;8.30;3.90;;;;;;;16.96;64.57;97723.84;106949;1279;23039;-80
2023/08/08 10:22:46;;;;;;;10.50;3.80;;;;;;;16.87;64.02;97723.59;106913;1279;22530;-80
2023/08/08 10:25:32;;;;;;;12.20;5.80;;;;;;;16.72;63.61;97728.27;107004;1279;22549;-80
2023/08/08 10:28:14;;;;;;;6.50;4.00;;;;;;;16.62;64.55;97724.90;106953;1279;24285;-80
2023/08/08 10:30:47;;;;;;;7.10;3.80;;;;;;;16.61;64.24;97730.95;106808;1279;25409;-80
2023/08/08 10:33:19;;;;;;;5.80;3.20;;;;;;;16.57;63.97;97731.91;106809;1279;22639;-80
2023/08/08 10:35:56;;;;;;;10.50;5.00;;;;;;;16.51;63.42;97729.34;106845;1279;22614;-79
2023/08/08 10:38:25;;;;;;;5.20;2.80;;;;;;;16.48;63.33;97729.09;106842;1280;22532;-79
2023/08/08 10:40:57;;;;;;;6.30;3.40;;;;;;;16.54;62.85;97721.58;106713;1279;23164;-79
2023/08/08 10:43:28;;;;;;;6.30;2.50;;;;;;;16.87;63.86;97721.73;106824;1279;23289;-80
2023/08/08 10:46:03;;;;;;;5.50;3.30;;;;;;;17.17;63.67;97718.21;106859;1279;22524;-80
2023/08/08 10:48:56;;;;;;;7.30;4.20;;;;;;;17.33;63.10;97710.09;106844;1279;22529;-80
2023/08/08 10:51:42;;;;;;;4.80;2.90;;;;;;;17.35;62.24;97704.16;106904;1279;23322;-80
2023/08/08 10:54:27;;;;;;;7.40;2.90;;;;;;;17.24;61.34;97714.21;106858;1279;24269;-80
2023/08/08 10:56:58;;;;;;;7.20;3.60;;;;;;;17.10;61.53;97716.23;106888;1279;22584;-80
2023/08/08 10:59:37;;;;;;;5.30;2.90;;;;;;;17.02;61.54;97716.33;106811;1279;22531;-80
2023/08/08 11:02:06;;;;;;;5.70;3.00;;;;;;;16.94;61.38;97718.37;106793;1279;22576;-80
2023/08/08 11:04:35;;;;;;;4.40;2.80;;;;;;;16.98;60.73;97711.47;106812;1279;25499;-81
2023/08/08 11:07:04;;;;;;;5.00;3.10;;;;;;;17.24;61.12;97713.53;106855;1280;24162;-81
2023/08/08 11:09:32;;;;;;;6.40;3.20;;;;;;;17.55;60.98;97709.39;106827;1279;22579;-81
2023/08/08 11:12:00;;;;;;;8.30;2.90;;;;;;;17.83;61.21;97717.98;106916;1280;22663;-81
2023/08/08 11:14:29;;;;;;;5.50;3.00;;;;;;;18.05;60.25;97707.65;106785;1279;22660;-80
2023/08/08 11:16:57;;;;;;;5.10;2.80;;;;;;;18.18;59.77;97709.02;106780;1279;22584;-80
2023/08/08 11:19:25;;;;;;;5.00;2.90;;;;;;;18.23;59.48;97713.20;106725;1280;24447;-79
2023/08/08 11:21:53;;;;;;;6.30;3.60;;;;;;;18.27;58.86;97715.55;106446;1279;22547;-81
2023/08/08 11:24:21;;;;;;;8.00;2.90;;;;;;;18.42;58.42;97723.55;106757;1279;25426;-80
2023/08/08 11:26:51;;;;;;;5.20;2.50;;;;;;;18.47;57.96;97733.95;106872;1270;22662;-80
2023/08/08 11:29:19;;;;;;;4.40;2.80;;;;;;;18.38;58.21;97737.80;106825;1279;24206;-80